createdAt,value
2022-10-11T05:53:17.649Z,44.21
2022-10-11T05:54:18.534Z,44.31
2022-10-11T05:55:19.404Z,44.51
2022-10-11T05:56:20.255Z,44.61
2022-10-11T05:57:21.074Z,44.81
2022-10-11T05:58:21.925Z,45.71
2022-10-11T05:59:22.763Z,45.61
2022-10-11T06:00:23.553Z,45.31
2022-10-11T06:01:24.430Z,46.31
2022-10-11T06:02:25.365Z,46.70
2022-10-11T06:03:26.225Z,46.91
2022-10-11T06:04:27.102Z,47.13
2022-10-11T06:05:27.901Z,46.83
2022-10-11T06:06:28.777Z,46.73
2022-10-11T06:07:29.656Z,46.43
2022-10-11T06:08:30.541Z,46.23
2022-10-11T06:09:31.396Z,43.03
2022-10-11T06:10:32.186Z,41.75
2022-10-11T06:11:32.952Z,41.38
2022-10-11T06:12:33.981Z,41.58
2022-10-11T06:13:34.831Z,40.50
2022-10-11T06:14:35.705Z,40.71
2022-10-11T06:15:36.536Z,41.25
2022-10-11T06:16:37.331Z,41.27
2022-10-11T06:17:38.210Z,41.69
2022-10-11T06:18:39.147Z,42.72
2022-10-11T06:20:08.573Z,43.14
2022-10-11T06:20:40.918Z,44.06
2022-10-11T08:34:50.755Z,48.50
2022-10-11T08:35:51.761Z,48.60
2022-10-11T08:36:52.602Z,48.60
2022-10-11T08:37:53.428Z,48.60
2022-10-11T08:38:54.358Z,48.70
2022-10-11T08:39:55.303Z,48.90
2022-10-11T08:40:56.239Z,48.90
2022-10-11T08:41:57.117Z,49.21
2022-10-11T08:42:58.015Z,49.30
2022-10-11T08:43:58.947Z,48.90
2022-10-11T08:45:10.507Z,49.18
2022-10-11T08:46:01.666Z,48.98
2022-10-11T08:47:01.610Z,48.98
2022-10-11T08:48:02.478Z,49.01
2022-10-11T08:49:03.408Z,48.80
2022-10-11T08:50:04.751Z,48.90
2022-10-11T08:51:05.122Z,49.01
2022-10-11T08:52:06.066Z,49.01
2022-10-11T08:53:06.981Z,49.40
2022-10-11T08:54:08.176Z,49.21
2022-10-11T08:55:08.650Z,49.21
2022-10-11T08:56:09.589Z,49.51
2022-10-11T08:57:09.684Z,49.40
2022-10-11T08:58:10.453Z,49.30
2022-10-11T08:59:11.262Z,49.60
2022-10-11T09:00:12.065Z,49.40
2022-10-11T09:01:12.900Z,49.53
2022-10-11T09:02:13.659Z,49.33
2022-10-11T09:03:14.460Z,49.63
2022-10-11T09:04:15.274Z,49.53
2022-10-11T09:05:16.072Z,49.53
2022-10-11T09:06:16.860Z,53.85
2022-10-11T09:07:17.706Z,50.93
2022-10-11T09:08:18.481Z,49.60
2022-10-11T09:09:19.292Z,49.51
2022-10-11T09:10:20.249Z,49.40
2022-10-11T09:11:21.096Z,49.48
2022-10-11T09:12:21.882Z,49.18
2022-10-11T09:13:22.726Z,48.78
2022-10-11T09:14:23.605Z,48.78
2022-10-11T09:15:24.509Z,48.68
2022-10-11T09:16:25.394Z,48.46
2022-10-11T09:17:26.246Z,48.55
2022-10-11T09:18:27.121Z,48.46
2022-10-11T09:19:28.031Z,48.55
2022-10-11T09:20:29.025Z,48.55
2022-10-11T09:21:29.871Z,48.46
2022-10-11T09:22:30.968Z,48.46
2022-10-11T09:23:31.302Z,48.35
2022-10-11T09:24:32.189Z,48.46
2022-10-11T09:25:33.050Z,48.33
2022-10-11T09:26:33.942Z,48.33
2022-10-11T09:27:57.674Z,48.33
2022-10-11T09:28:36.540Z,48.33
2022-10-11T09:29:36.421Z,48.33
2022-10-11T09:30:37.315Z,48.13
2022-10-11T09:31:38.181Z,48.01
2022-10-11T09:32:39.089Z,48.01
2022-10-11T09:33:39.973Z,48.11
2022-10-11T09:34:40.860Z,48.31
2022-10-11T09:35:41.820Z,48.41
2022-10-11T09:36:42.743Z,48.41
2022-10-11T09:37:43.577Z,48.41
2022-10-11T09:38:44.437Z,48.11
2022-10-11T09:39:45.302Z,47.69
2022-10-11T09:40:46.201Z,47.49
2022-10-11T09:41:47.072Z,47.28
2022-10-11T09:42:47.858Z,46.98
2022-10-11T09:43:48.680Z,46.68
2022-10-11T09:44:49.589Z,46.68
2022-10-11T09:45:50.543Z,46.88
2022-10-11T09:46:51.429Z,46.98
2022-10-11T09:47:52.278Z,46.28
2022-10-11T09:48:53.155Z,45.98
2022-10-11T09:49:54.047Z,45.08
2022-10-11T09:50:55.181Z,45.68
2022-10-11T09:51:55.565Z,46.08
2022-10-11T09:52:56.459Z,46.16
2022-10-11T09:53:57.402Z,45.86
2022-10-11T09:54:58.330Z,45.76
2022-10-11T09:55:59.233Z,45.36
2022-10-11T09:57:00.118Z,45.46
2022-10-11T09:58:00.993Z,45.16
2022-10-11T09:59:01.910Z,45.46
2022-10-11T10:00:02.788Z,45.56
2022-10-11T10:01:07.854Z,45.56
2022-10-11T10:02:04.915Z,45.06
2022-10-11T10:03:05.164Z,44.66
2022-10-11T10:04:06.029Z,45.34
2022-10-11T10:05:06.940Z,45.43
2022-10-11T10:06:08.548Z,45.74
2022-10-11T10:07:08.793Z,45.94
2022-10-11T10:08:09.661Z,45.74
2022-10-11T10:09:10.522Z,45.34
2022-10-11T10:10:11.391Z,45.24
2022-10-11T10:11:12.303Z,45.14
2022-10-11T10:12:13.253Z,45.54
2022-10-11T10:13:14.164Z,45.74
2022-10-11T10:14:15.042Z,45.72
2022-10-11T10:15:16.078Z,45.42
2022-10-11T10:16:16.908Z,45.01
2022-10-11T10:17:17.807Z,44.62
2022-10-11T10:18:18.565Z,44.51
2022-10-11T10:19:19.439Z,44.12
2022-10-11T10:20:20.342Z,44.12
2022-10-11T10:21:21.198Z,43.91
2022-10-11T10:22:22.069Z,44.21
2022-10-11T10:23:22.930Z,43.84
2022-10-11T10:24:23.709Z,43.84
2022-10-11T10:25:24.604Z,43.93
2022-10-11T10:26:25.492Z,43.93
2022-10-11T10:27:26.344Z,43.33
2022-10-11T10:28:27.274Z,43.63
2022-10-11T10:29:28.084Z,43.63
2022-10-11T10:30:33.092Z,43.43
2022-10-11T10:31:30.735Z,43.24
2022-10-11T10:32:30.608Z,42.93
2022-10-11T10:33:31.512Z,43.13
2022-10-11T10:34:32.379Z,43.16
2022-10-11T10:35:33.233Z,43.26
2022-10-11T10:36:34.189Z,43.35
2022-10-11T10:37:35.207Z,43.55
2022-10-11T10:38:36.029Z,43.93
2022-10-11T10:39:36.896Z,43.63
2022-10-11T10:40:37.793Z,43.54
2022-10-11T10:41:38.692Z,44.24
2022-10-11T10:42:39.665Z,42.74
2022-10-11T10:43:40.480Z,41.63
2022-10-11T10:44:41.353Z,41.43
2022-10-11T10:45:42.199Z,41.03
2022-10-11T10:46:43.125Z,40.73
2022-10-11T10:47:43.988Z,41.13
2022-10-11T10:49:19.071Z,41.24
2022-10-11T10:49:54.202Z,41.71
2022-10-11T10:50:47.336Z,41.52
2022-10-11T10:51:47.544Z,41.61
2022-10-11T10:52:47.896Z,42.21
2022-10-11T10:53:48.766Z,41.91
2022-10-11T10:54:49.621Z,40.91
2022-10-11T10:55:50.496Z,41.11
2022-10-11T10:56:51.415Z,41.52
2022-10-11T10:57:52.190Z,41.02
2022-10-11T10:58:52.959Z,41.61
2022-10-11T10:59:53.842Z,42.11
2022-10-11T11:00:54.725Z,42.02
2022-10-11T11:01:55.672Z,41.52
2022-10-11T11:02:56.623Z,41.02
2022-10-11T11:03:57.444Z,41.21
2022-10-11T11:05:59.123Z,41.99
2022-10-11T11:07:00.044Z,42.60
2022-10-11T11:08:00.915Z,42.19
2022-10-11T11:09:01.785Z,42.40
2022-10-11T11:10:02.636Z,42.10
2022-10-11T11:11:03.511Z,41.99
2022-10-11T11:12:04.419Z,41.89
2022-10-11T11:13:05.284Z,41.39
2022-10-11T11:14:06.159Z,41.60
2022-10-11T11:15:07.024Z,41.30
2022-10-11T11:16:08.195Z,41.49
2022-10-11T11:17:08.679Z,41.19
2022-10-11T11:18:09.542Z,41.27
2022-10-11T11:19:10.420Z,41.58
2022-10-11T11:20:11.286Z,40.78
2022-10-11T11:21:12.194Z,40.58
2022-10-11T11:22:13.114Z,39.28
2022-10-11T11:23:13.961Z,39.48
2022-10-11T11:24:14.830Z,39.48
2022-10-11T11:25:15.698Z,39.67
2022-10-11T11:26:16.484Z,39.37
2022-10-11T11:27:17.398Z,40.28
2022-10-11T11:28:18.190Z,41.08
2022-10-11T11:29:19.017Z,40.47
2022-10-11T11:30:19.830Z,40.47
2022-10-11T11:31:20.660Z,42.87
2022-10-11T11:32:21.570Z,42.87
2022-10-11T11:33:22.347Z,42.77
2022-10-11T11:34:23.253Z,42.57
2022-10-11T11:35:24.173Z,41.88
2022-10-11T11:36:24.920Z,41.38
2022-10-11T11:37:26.065Z,41.27
2022-10-11T11:38:29.611Z,40.78
2022-10-11T11:39:27.110Z,40.37
2022-10-11T11:40:28.010Z,40.28
2022-10-11T11:41:28.920Z,40.37
2022-10-11T11:42:29.774Z,40.37
2022-10-11T11:43:30.683Z,40.56
2022-10-11T11:44:31.573Z,40.66
2022-10-11T11:45:32.442Z,40.95
2022-10-11T11:46:33.222Z,41.16
2022-10-11T11:47:34.181Z,40.25
2022-10-11T11:48:35.156Z,40.56
2022-10-11T11:49:36.193Z,41.66
2022-10-11T11:50:36.688Z,41.85
2022-10-11T11:51:37.470Z,40.86
2022-10-11T11:52:38.622Z,42.25
2022-10-11T11:53:39.006Z,42.15
2022-10-11T11:54:40.009Z,40.56
2022-10-11T11:55:40.875Z,39.84
2022-10-11T11:56:41.910Z,39.56
2022-10-11T11:57:42.218Z,39.64
2022-10-11T11:58:43.079Z,40.23
2022-10-11T11:59:43.983Z,38.74
2022-10-11T12:00:44.866Z,39.04
2022-10-11T12:01:45.776Z,40.04
2022-10-11T12:02:46.672Z,40.14
2022-10-11T12:03:47.554Z,39.84
2022-10-11T12:04:48.518Z,40.04
2022-10-11T12:05:49.351Z,39.84
2022-10-11T12:07:11.442Z,37.74
2022-10-11T12:07:52.063Z,37.64
2022-10-11T12:08:52.025Z,37.34
2022-10-11T12:09:52.898Z,37.14
2022-10-11T12:10:53.820Z,37.14
2022-10-11T12:11:54.695Z,37.04
2022-10-11T12:12:55.685Z,37.14
2022-10-11T12:13:56.527Z,37.36
2022-10-11T12:14:57.396Z,37.16
2022-10-11T12:15:58.265Z,37.96
2022-10-11T12:16:59.122Z,38.26
2022-10-11T12:18:00.042Z,37.96
2022-10-11T12:19:00.946Z,38.26
2022-10-11T12:20:01.868Z,38.36
2022-10-11T12:21:03.070Z,39.36
2022-10-11T12:22:03.744Z,39.34
2022-10-11T12:23:04.084Z,38.94
2022-10-11T12:24:04.906Z,38.64
2022-10-11T12:25:05.809Z,40.44
2022-10-11T12:26:06.791Z,40.34
2022-10-11T12:27:07.118Z,39.43
2022-10-11T12:28:08.050Z,39.04
2022-10-11T12:29:09.334Z,39.24
2022-10-11T12:30:09.674Z,39.84
2022-10-11T12:31:10.544Z,39.43
2022-10-11T12:32:11.500Z,38.84
2022-10-11T12:33:12.391Z,38.04
2022-10-11T12:34:13.251Z,38.34
2022-10-11T12:35:14.127Z,39.64
2022-10-11T12:36:15.557Z,39.94
2022-10-11T12:37:15.617Z,39.84
2022-10-11T12:38:16.542Z,40.14
2022-10-11T12:39:17.628Z,40.34
2022-10-11T12:40:17.993Z,38.84
2022-10-11T12:41:18.818Z,37.94
2022-10-11T12:42:19.696Z,36.94
2022-10-11T12:43:20.626Z,37.34
2022-10-11T12:44:21.525Z,37.74
2022-10-11T12:45:22.371Z,38.64
2022-10-11T12:46:23.276Z,38.84
2022-10-11T12:47:24.261Z,39.64
2022-10-11T12:48:30.126Z,38.44
2022-10-11T12:49:26.891Z,38.74
2022-10-11T12:50:26.726Z,37.64
2022-10-11T12:51:27.528Z,36.74
2022-10-11T12:52:28.410Z,37.04
2022-10-11T12:53:29.607Z,37.74
2022-10-11T12:54:34.502Z,37.14
2022-10-11T12:55:31.622Z,37.04
2022-10-11T12:56:31.405Z,36.54
2022-10-11T12:57:32.181Z,36.24
2022-10-11T12:58:33.132Z,36.54
2022-10-11T12:59:34.007Z,37.14
2022-10-11T13:00:34.820Z,36.84
2022-10-11T13:01:35.689Z,35.64
2022-10-11T13:02:36.555Z,35.46
2022-10-11T13:03:37.473Z,34.96
2022-10-11T13:04:38.372Z,35.36
2022-10-11T13:05:43.269Z,35.06
2022-10-11T13:06:40.968Z,35.86
2022-10-11T13:07:40.848Z,35.36
2022-10-11T13:08:41.854Z,35.06
2022-10-11T13:09:48.088Z,35.28
2022-10-11T13:10:44.355Z,36.47
2022-10-11T13:11:44.238Z,36.28
2022-10-11T13:12:45.111Z,36.78
2022-10-11T13:13:46.126Z,36.98
2022-10-11T13:14:46.662Z,36.88
2022-10-11T13:15:47.460Z,36.28
2022-10-11T13:16:48.332Z,36.38
2022-10-11T13:17:49.268Z,36.38
2022-10-11T13:18:50.138Z,38.07
2022-10-11T13:19:51.030Z,38.98
2022-10-11T13:20:51.881Z,38.78
2022-10-11T13:21:52.738Z,37.98
2022-10-11T13:22:53.627Z,37.98
2022-10-11T13:23:54.613Z,38.36
2022-10-11T13:24:55.441Z,38.26
2022-10-11T13:25:56.311Z,37.66
2022-10-11T13:26:57.190Z,37.66
2022-10-11T13:27:58.046Z,38.36
2022-10-11T13:28:58.962Z,38.66
2022-10-11T13:29:59.861Z,38.16
2022-10-11T13:31:00.744Z,38.26
2022-10-11T13:32:01.534Z,37.86
2022-10-11T13:33:02.386Z,38.46
2022-10-11T13:34:03.298Z,38.06
2022-10-11T13:35:04.197Z,37.96
2022-10-11T13:36:05.435Z,38.96
2022-10-11T13:37:05.946Z,38.85
2022-10-11T13:38:06.810Z,38.96
2022-10-11T13:39:07.701Z,39.04
2022-10-11T13:40:08.569Z,38.44
2022-10-11T13:41:09.449Z,38.64
2022-10-11T13:42:10.316Z,38.04
2022-10-11T13:43:11.189Z,37.94
2022-10-11T13:44:12.116Z,37.94
2022-10-11T13:45:13.002Z,38.14
2022-10-11T13:46:13.890Z,37.64
2022-10-11T13:47:14.978Z,37.64
2022-10-11T13:48:15.337Z,38.44
2022-10-11T13:49:16.245Z,38.34
2022-10-11T13:50:17.110Z,37.64
2022-10-11T13:51:17.998Z,37.84
2022-10-11T13:52:18.880Z,38.74
2022-10-11T13:53:19.762Z,37.74
2022-10-11T13:54:20.976Z,38.04
2022-10-11T13:55:21.370Z,38.34
2022-10-11T13:56:22.255Z,38.54
2022-10-11T13:57:23.177Z,38.24
2022-10-11T13:58:24.038Z,37.84
2022-10-11T13:59:24.963Z,37.74
2022-10-11T14:00:25.742Z,37.44
2022-10-11T14:01:26.726Z,37.04
2022-10-11T14:02:27.642Z,37.14
2022-10-11T14:03:28.402Z,37.64
2022-10-11T14:04:30.109Z,37.54
2022-10-11T14:05:30.130Z,37.54
